createdAt,value
2024-03-28T00:00:58.981Z,4168.9
2024-03-28T00:06:33.917Z,4166.7
2024-03-28T00:12:08.736Z,4169.4
2024-03-28T00:17:44.096Z,4166.2
2024-03-28T00:23:19.207Z,4168.6
2024-03-28T00:28:54.253Z,4166.2
2024-03-28T00:34:29.010Z,4167.2
2024-03-28T00:40:04.773Z,4163.9
2024-03-28T00:45:40.073Z,4165.9
2024-03-28T00:51:14.968Z,4168.6
2024-03-28T00:56:50.551Z,4167.6
2024-03-28T01:02:25.997Z,4164.4
2024-03-28T01:08:01.169Z,4165.2
2024-03-28T01:13:36.479Z,4164.2
2024-03-28T01:19:12.536Z,4161
2024-03-28T01:24:47.670Z,4163
2024-03-28T01:30:22.665Z,4161
2024-03-28T01:35:57.742Z,4157
2024-03-28T01:41:33.060Z,4159.9
2024-03-28T01:48:03.557Z,4162.9
2024-03-28T01:53:39.169Z,4159.7
2024-03-28T01:59:14.570Z,4159.7
2024-03-28T02:04:50.037Z,4157.9
2024-03-28T02:10:25.187Z,4162.5
2024-03-28T02:16:00.077Z,4155.5
2024-03-28T02:21:36.308Z,4157.7
2024-03-28T02:27:11.216Z,4156.3
2024-03-28T02:32:46.104Z,4157.5
2024-03-28T02:38:21.498Z,4157
2024-03-28T02:43:56.830Z,4156.8
2024-03-28T02:49:32.000Z,4155.3
2024-03-28T02:55:07.292Z,4157.7
2024-03-28T03:00:42.147Z,4158
2024-03-28T03:06:17.000Z,4156.2
2024-03-28T03:11:51.946Z,4153.8
2024-03-28T03:17:27.316Z,4155.3
2024-03-28T03:23:02.374Z,4157.2
2024-03-28T03:28:37.965Z,4152.7
2024-03-28T03:34:13.202Z,4152.5
2024-03-28T03:39:48.663Z,4152.7
2024-03-28T03:45:24.276Z,4151.5
2024-03-28T03:50:59.066Z,4150.6
2024-03-28T03:56:34.624Z,4152.7
2024-03-28T04:02:10.072Z,4154
2024-03-28T04:07:45.245Z,4149.5
2024-03-28T04:13:20.196Z,4149.1
2024-03-28T04:18:55.536Z,4149.3
2024-03-28T04:24:30.400Z,4153.2
2024-03-28T04:30:05.270Z,4150.5
2024-03-28T04:35:40.792Z,4149.8
2024-03-28T04:41:15.569Z,4149.1
2024-03-28T04:46:50.445Z,4148
2024-03-28T04:52:25.996Z,4148.5
2024-03-28T04:58:01.009Z,4148.1
2024-03-28T05:03:35.825Z,4147.8
2024-03-28T05:09:11.278Z,4148.6
2024-03-28T05:14:46.136Z,4146.1
2024-03-28T05:20:21.167Z,4147.1
2024-03-28T05:25:57.251Z,4145.3
2024-03-28T05:31:32.320Z,4147.8
2024-03-28T05:37:07.326Z,4149.8
2024-03-28T05:42:48.508Z,4147
2024-03-28T05:48:23.922Z,4145.5
2024-03-28T05:53:58.931Z,4146.1
2024-03-28T05:59:34.390Z,4146
2024-03-28T06:05:09.841Z,4146.8
2024-03-28T06:10:51.517Z,4149
2024-03-28T06:16:27.290Z,4145.8
2024-03-28T06:22:03.251Z,4146.6
2024-03-28T06:27:38.275Z,4144.5
2024-03-28T06:33:13.544Z,4146
2024-03-28T06:38:48.691Z,4145.3
2024-03-28T06:44:23.529Z,4146.1
2024-03-28T06:49:59.321Z,4145.6
2024-03-28T06:55:34.517Z,4145
2024-03-28T07:01:09.503Z,4143.6
2024-03-28T07:06:44.568Z,4144.6
2024-03-28T07:12:19.836Z,4146
2024-03-28T07:17:54.927Z,4145.5
2024-03-28T07:23:30.120Z,4164.7
2024-03-28T07:29:05.762Z,4160.9
2024-03-28T07:34:41.679Z,4143.3
2024-03-28T07:40:17.836Z,4145
2024-03-28T07:45:53.003Z,4142.4
2024-03-28T07:51:28.216Z,4141.9
2024-03-28T07:57:03.339Z,4142.9
2024-03-28T08:02:38.862Z,4143.4
2024-03-28T08:08:14.040Z,4142.6
2024-03-28T08:13:49.716Z,4143.1
2024-03-28T08:19:24.762Z,4146
2024-03-28T08:25:01.342Z,4147
2024-03-28T08:30:36.628Z,4145.8
2024-03-28T08:36:12.136Z,4144.6
2024-03-28T08:41:47.117Z,4147.3
2024-03-28T08:47:23.034Z,4147.5
2024-03-28T08:53:01.046Z,4146.5
2024-03-28T08:58:36.454Z,4144
2024-03-28T09:04:12.113Z,4146
2024-03-28T09:09:47.070Z,4146.6
2024-03-28T09:15:22.309Z,4145.6
2024-03-28T09:20:57.929Z,4146.5
2024-03-28T09:26:32.855Z,4147
2024-03-28T09:32:08.137Z,4146.1
2024-03-28T09:37:43.262Z,4145.3
2024-03-28T09:43:18.501Z,4145.6
2024-03-28T09:48:53.360Z,4145.8
2024-03-28T09:54:28.747Z,4146.6
2024-03-28T10:00:03.738Z,4146.1
2024-03-28T10:05:38.877Z,4144.1
2024-03-28T10:11:14.036Z,4145.6
2024-03-28T10:16:49.262Z,4145.6
2024-03-28T10:22:24.009Z,4145.8
2024-03-28T10:27:59.118Z,4145.8
2024-03-28T10:33:34.180Z,4144.6
2024-03-28T10:39:09.384Z,4145.3
2024-03-28T10:44:44.382Z,4146.1
2024-03-28T10:50:19.944Z,4148
2024-03-28T10:55:55.010Z,4143.1
2024-03-28T11:01:36.940Z,4147.1
2024-03-28T11:07:17.687Z,4145.6
2024-03-28T11:12:52.817Z,4145
2024-03-28T11:18:28.679Z,4146.1
2024-03-28T11:24:03.918Z,4147
2024-03-28T11:29:39.407Z,4145.8
2024-03-28T11:35:14.468Z,4143.8
2024-03-28T11:40:49.810Z,4146.5
2024-03-28T11:46:24.750Z,4142.9
2024-03-28T11:52:00.372Z,4142.6
2024-03-28T11:57:35.655Z,4143.8
2024-03-28T12:03:10.864Z,4141.6
2024-03-28T12:08:46.669Z,4141.6
2024-03-28T12:14:21.532Z,4142.3
2024-03-28T12:19:56.968Z,4144.1
2024-03-28T12:25:32.763Z,4142.4
2024-03-28T12:31:08.969Z,4140.1
2024-03-28T12:36:44.235Z,4142.3
2024-03-28T12:42:19.102Z,4139.3
2024-03-28T12:47:54.034Z,4139.8
2024-03-28T12:53:29.373Z,4140.6
2024-03-28T12:59:05.484Z,4141.1
2024-03-28T13:04:41.331Z,4141.8
2024-03-28T13:10:16.725Z,4139.8
2024-03-28T13:15:52.475Z,4143.6
2024-03-28T13:21:27.687Z,4139.9
2024-03-28T13:27:46.779Z,4142.6
2024-03-28T13:33:22.616Z,4142.3
2024-03-28T13:38:57.812Z,4139.6
2024-03-28T13:44:33.100Z,4139.6
2024-03-28T13:50:08.808Z,4139.8
2024-03-28T13:55:44.675Z,4138.1
2024-03-28T14:01:20.093Z,4139.4
2024-03-28T14:06:55.688Z,4138.3
2024-03-28T14:12:31.277Z,4139.4
2024-03-28T14:18:06.000Z,4136.2
2024-03-28T14:23:41.933Z,4138.6
2024-03-28T14:29:16.775Z,4136.9
2024-03-28T14:34:52.036Z,4138.3
2024-03-28T14:40:27.832Z,4137.8
2024-03-28T14:46:02.677Z,4135.7
2024-03-28T14:51:37.672Z,4135.1
2024-03-28T14:57:12.618Z,4134.6
2024-03-28T15:02:47.681Z,4132.7
2024-03-28T15:08:22.944Z,4132.7
2024-03-28T15:13:58.997Z,4136.6
2024-03-28T15:19:34.213Z,4136.4
2024-03-28T15:25:09.482Z,4134.2
2024-03-28T15:30:46.448Z,4131.9
2024-03-28T15:36:21.766Z,4134.7
2024-03-28T15:41:56.929Z,4135.4
2024-03-28T15:47:33.336Z,4134.7
2024-03-28T15:53:08.800Z,4135.4
2024-03-28T15:58:44.102Z,4133.7
2024-03-28T16:04:19.270Z,4133.6
2024-03-28T16:09:54.311Z,4134.2
2024-03-28T16:15:29.257Z,4130.7
2024-03-28T16:21:05.570Z,4132.9
2024-03-28T16:26:40.953Z,4130.5
2024-03-28T16:32:16.873Z,4132.1
2024-03-28T16:37:52.148Z,4131.7
2024-03-28T16:43:27.200Z,4132.6
2024-03-28T16:49:02.104Z,4130.7
2024-03-28T16:54:38.423Z,4131.2
2024-03-28T17:00:13.340Z,4129.4
2024-03-28T17:05:49.023Z,4128.4
2024-03-28T17:11:24.454Z,4125.4
2024-03-28T17:16:59.338Z,4128.4
2024-03-28T17:22:37.019Z,4129.4
2024-03-28T17:28:12.659Z,4129
2024-03-28T17:33:47.846Z,4130.5
2024-03-28T17:39:22.634Z,4128.2
2024-03-28T17:44:58.412Z,4125.4
2024-03-28T17:50:35.884Z,4127.7
2024-03-28T17:56:14.425Z,4127.5
2024-03-28T18:01:50.772Z,4124.7
2024-03-28T18:07:26.400Z,4126.2
2024-03-28T18:13:01.668Z,4126.2
2024-03-28T18:18:36.852Z,4124.7
2024-03-28T18:24:11.871Z,4126.4
2024-03-28T18:29:49.788Z,4122
2024-03-28T18:35:29.364Z,4122
2024-03-28T18:41:04.550Z,4123.2
2024-03-28T18:46:39.709Z,4122.2
2024-03-28T18:52:15.367Z,4125.2
2024-03-28T18:57:50.365Z,4124.5
2024-03-28T19:03:25.570Z,4122
2024-03-28T19:09:00.896Z,4122.5
2024-03-28T19:14:36.201Z,4124.4
2024-03-28T19:20:11.440Z,4121.7
2024-03-28T19:25:46.870Z,4121
2024-03-28T19:31:21.784Z,4121
2024-03-28T19:36:56.561Z,4121.8
2024-03-28T19:42:31.708Z,4122.8
2024-03-28T19:48:06.948Z,4121.7
2024-03-28T19:53:42.070Z,4122.7
2024-03-28T19:59:16.925Z,4120.3
2024-03-28T20:04:53.295Z,4119.3
2024-03-28T20:10:28.577Z,4119.7
2024-03-28T20:16:03.862Z,4121.3
2024-03-28T20:21:38.731Z,4120.2
2024-03-28T20:27:13.496Z,4120.2
2024-03-28T20:32:48.838Z,4121.5
2024-03-28T20:38:23.719Z,4118.8
2024-03-28T20:43:58.626Z,4116
2024-03-28T20:49:33.593Z,4114.1
2024-03-28T20:55:08.881Z,4115.3
2024-03-28T21:00:43.767Z,4115.3
2024-03-28T21:06:18.927Z,4117.8
2024-03-28T21:11:54.361Z,4116.1
2024-03-28T21:17:29.466Z,4115.1
2024-03-28T21:23:05.024Z,4116.5
2024-03-28T21:28:39.861Z,4117.3
2024-03-28T21:34:14.816Z,4115.5
2024-03-28T21:39:50.308Z,4115.1
2024-03-28T21:45:25.311Z,4114.5
2024-03-28T21:51:00.555Z,4113.5
2024-03-28T21:56:36.299Z,4115.1
2024-03-28T22:02:11.294Z,4114
2024-03-28T22:07:46.476Z,4113
2024-03-28T22:13:21.864Z,4114.6
2024-03-28T22:18:56.896Z,4114
2024-03-28T22:24:32.239Z,4114.6
2024-03-28T22:30:07.859Z,4113.1
2024-03-28T22:35:42.850Z,4112.3
2024-03-28T22:41:17.784Z,4111.8
2024-03-28T22:46:52.811Z,4114.5
2024-03-28T22:52:27.707Z,4111.5
2024-03-28T22:58:02.783Z,4111.3
2024-03-28T23:03:38.221Z,4110.3
2024-03-28T23:09:13.089Z,4108.6
2024-03-28T23:14:48.104Z,4109.9
2024-03-28T23:20:23.967Z,4111.1
2024-03-28T23:25:59.805Z,4110.1
2024-03-28T23:31:41.398Z,4108.9
2024-03-28T23:37:17.005Z,4105.4
2024-03-28T23:42:52.242Z,4104.9
2024-03-28T23:48:27.350Z,4110.8
2024-03-28T23:54:03.588Z,4109.3
2024-03-28T23:59:38.740Z,4109.8
